Highlands Peak, California Weather observations

Data are for observation ending at time listed.
 Day   Time    Ave.   Ave.  Ave.  Vector   Max.   Stn.    Total    Solar   Ave.  
  of    of     Air    Rel.  Wind   Wind    Wind   Baro.  Precip.   Rad.    Soil  
Year   Day     Temp.  Hum.  Speed  Dir.    Gust   Pres.                    Temp. 
2017   (PST)    F      %     mph   deg.    mph     mb.     in.     W/m2     F   
------------------------------------------------------------------------------
 204    4:50   79.8    18    1.8   144      2.3   926.5    0.00       0    84.1
 204    5:00   79.7    18    1.2   164      2.6   926.6    0.00       1    83.9
 204    5:10   79.3    18    1.5    97      2.4   926.6    0.00       3    83.8
 204    5:20   78.9    19    2.4    79      3.4   926.6    0.00       8    83.7
 204    5:30   78.3    20    3.1    60      5.4   926.7    0.00      13    83.6
 204    5:40   77.9    20    2.8    52      4.5   926.7    0.00      18    83.4
 204    5:50   78.2    20    2.1    75      3.3   926.8    0.00      23    83.3
 204    6:00   78.3    20    1.9    74      2.9   926.9    0.00      28    83.2
 204    6:10   79.0    18    1.3   126      2.3   927.0    0.00      43    83.1
 204    6:20   80.5    18    1.2   174      2.5   927.1    0.00     205    83.0
 204    6:30   81.2    18    0.4   267      2.0   927.2    0.00     243    82.9
 204    6:40   78.7    18    1.2   253      1.8   927.4    0.00     279    82.8
 204    6:50   78.5    19    1.1   246      2.6   927.4    0.00     312    82.8
 204    7:00   79.7    20    0.5    64      1.4   927.5    0.00     349    82.8
 204    7:10   80.8    25    1.6    57      2.6   927.5    0.00     388    82.7
 204    7:20   81.0    25    1.6    94      2.5   927.5    0.00     425    82.8
 204    7:30   80.5    25    1.8   109      2.7   927.6    0.00     449    83.0
 204    7:40   81.0    26    1.7   131      2.9   927.6    0.00     499    83.0
 204    7:50   81.1    22    3.0   153      4.5   927.6    0.00     534    83.2
 204    8:00   81.0    22    2.6   170      4.5   927.7    0.00     567    83.3
 204    8:10   81.2    21    2.1   176      3.9   927.7    0.00     599    83.5
 204    8:20   80.3    21    2.2   208      4.0   927.7    0.00     631    83.7
 204    8:30   79.7    22    2.3   239      5.1   927.8    0.00     663    83.7
 204    8:40   79.7    22    1.7   247      3.1   927.7    0.00     695    83.8
 204    8:50   79.6    23    2.1   262      3.9   927.7    0.00     725    83.8
 204    9:00   79.9    24    1.8   249      3.4   927.6    0.00     758    83.9
 204    9:10   80.3    26    2.0   264      4.0   927.6    0.00     793    84.1
 204    9:20   79.4    28    2.1   257      3.4   927.7    0.00     825    84.3
 204    9:30   79.3    29    1.9   247      3.5   927.8    0.00     849    84.6
 204    9:40   80.3    29    2.2   246      4.1   927.7    0.00     876    85.0
 204    9:50   80.1    31    2.3   259      3.9   927.8    0.00     900    85.0
 204   10:00   79.9    31    2.9   268      4.7   927.8    0.00     920    85.2
 204   10:10   78.8    33    2.2   271      3.4   927.9    0.00     938    85.3
 204   10:20   79.1    30    2.3   274      3.5   927.9    0.00     956    85.5
 204   10:30   79.4    26    2.2   281      3.3   927.9    0.00     972    85.6
 204   10:40   80.2    26    2.3   289      3.8   928.0    0.00     987    85.8
 204   10:50   80.1    28    2.7   280      4.5   927.9    0.00     996    85.9
 204   11:00   80.2    29    2.8   276      4.5   927.8    0.00    1005    86.0
 204   11:10   80.5    30    3.6   279      5.0   927.8    0.00    1015    86.1
 204   11:20   80.3    30    3.6   278      5.8   927.9    0.00    1020    86.2
 204   11:30   80.0    30    3.4   281      5.2   927.8    0.00    1019    86.4
 204   11:40   79.9    30    4.1   279      5.6   927.7    0.00    1024    86.5
 204   11:50   80.4    28    4.3   280      5.8   927.6    0.00    1029    86.6
 204   12:00   80.9    25    4.1   272      6.1   927.6    0.00    1030    86.6
 204   12:10   80.8    22    4.1   268      6.1   927.5    0.00    1031    86.7
 204   12:20   80.6    23    3.9   274      5.6   927.5    0.00    1032    86.8
 204   12:30   79.6    28    4.1   268      6.1   927.5    0.00    1030    87.0
 204   12:40   78.9    34    3.7   278      5.7   927.5    0.00    1025    87.1
 204   12:50   78.5    33    3.8   275      5.7   927.5    0.00    1021    87.1
 204   13:00   78.0    35    3.7   278      5.3   927.4    0.00    1013    87.2
 204   13:10   78.4    33    3.2   280      4.8   927.3    0.00    1005    87.3
 204   13:20   78.0    33    3.3   272      5.5   927.3    0.00     994    87.5
 204   13:30   78.2    30    3.1   275      4.5   927.3    0.00     984    87.6
 204   13:40   78.4    29    3.7   273      6.6   927.3    0.00     972    87.9
 204   13:50   78.4    33    4.2   262      6.6   927.3    0.00     930    88.2
 204   14:00   78.2    35    4.6   265      7.2   927.2    0.00     941    88.5
 204   14:10   77.1    36    4.6   263      7.9   927.2    0.00     923    88.9
 204   14:20   77.9    34    3.9   270      6.9   927.2    0.00     903    89.2
 204   14:30   78.5    33    4.9   265      7.7   927.1    0.00     879    89.6
 204   14:40   78.1    32    4.7   266      7.2   927.1    0.00     858    89.9
 204   14:50   79.5    31    4.2   271      7.5   927.0    0.00     836    90.3
 204   15:00   80.2    28    4.1   270      7.5   927.0    0.00     813    90.7
 204   15:10   79.5    29    3.5   282      6.6   926.9    0.00     787    91.1
 204   15:20   79.6    30    3.3   270      5.9   926.8    0.00     759    91.4
 204   15:30   79.7    32    3.2   260      6.1   926.7    0.00     732    91.8
 204   15:40   80.5    31    3.4   272      5.0   926.6    0.00     704    92.1
 204   15:50   80.8    31    2.6   270      5.1   926.6    0.00     674    92.4
 204   16:00   81.1    33    3.0   270      5.4   926.6    0.00     644    92.8
 204   16:10   80.0    34    2.5   251      5.2   926.6    0.00     614    93.1
 204   16:20   80.9    31    1.8   232      4.4   926.5    0.00     581    93.3
 204   16:30   81.2    31    1.6   261      4.5   926.4    0.00     545    93.6
 204   16:40   82.0    31    1.7   261      4.6   926.3    0.00     509    93.9
 204   16:50   82.4    31    1.4   268      3.3   926.2    0.00     475    94.1
 204   17:00   82.3    31    1.7   279      3.4   926.1    0.00     440    94.4
 204   17:10   81.6    33    1.6   267      3.9   926.1    0.00     403    94.6
 204   17:20   81.2    33    1.5   262      3.7   926.1    0.00     367    94.8
 204   17:30   80.9    33    1.1    47      2.6   926.1    0.00     331    95.0
 204   17:40   81.8    32    0.0   156      0.7   926.0    0.00     294    95.2
 204   17:50   82.2    32    0.2   163      1.2   925.9    0.00     258    95.4
 204   18:00   81.3    32    0.8   284      2.3   925.8    0.00     222    95.5
 204   18:10   78.7    36    1.6   281      2.9   925.8    0.00     189    95.6
 204   18:20   76.1    40    1.3   301      2.6   925.8    0.00     158    95.7
 204   18:30   75.9    40    0.8   306      2.5   925.8    0.00     128    95.7
 204   18:40   76.4    36    0.9   319      1.9   925.8    0.00     101    95.7
 204   18:50   74.7    38    1.9   350      3.1   925.8    0.00      76    95.7
 204   19:00   73.8    40    2.2   317      3.4   925.8    0.00      52    95.6
 204   19:10   72.4    36    2.2   314      3.1   925.9    0.00      31    95.6
 204   19:20   71.6    43    1.3   332      2.1   925.9    0.00      14    95.5
 204   19:30   69.7    44    0.9     8      2.3   925.9    0.00       4    95.4
 204   19:40   67.5    51    1.4   146      2.0   925.9    0.00       1    95.5
 204   19:50   67.2    47    0.7    22      1.2   926.0    0.00       0    95.3
 204   20:00   67.6    46    0.0   264      1.2   926.0    0.00       0    95.0
 204   20:10   67.6    46    1.3   261      1.7   926.0    0.00       0    95.0
 204   20:20   67.8    45    0.3   232      1.7   926.1    0.00       0    94.8
 204   20:30   68.2    41    0.2    67      1.5   926.2    0.00       0    94.5
 204   20:40   68.9    38    1.1    78      1.5   926.2    0.00       0    94.2
 204   20:50   69.3    38    1.5   181      2.3   926.3    0.00       0    94.2
 204   21:00   69.6    33    2.7   190      3.7   926.4    0.00       0    94.1
 204   21:10   69.6    34    1.5   185      3.4   926.5    0.00       0    93.8
 204   21:20   69.7    31    2.9   181      4.2   926.5    0.00       0    93.7
 204   21:30   69.7    29    2.6   202      5.9   926.6    0.00       0    93.5
 204   21:40   70.2    28    1.2   221      2.1   926.7    0.00       0    93.2
 204   21:50   70.1    28    2.9   181      4.6   926.7    0.00       0    92.9
 204   22:00   70.3    28    1.4   124      3.2   926.7    0.00       0    92.6
 204   22:10   70.2    29    0.7   219      2.1   926.7    0.00       0    92.3
 204   22:20   70.1    30    1.5    23      4.6   926.7    0.00       0    92.0
 204   22:30   69.4    33    3.1    35      3.9   926.8    0.00       0    91.6
 204   22:40   69.9    30    2.6    30      4.6   926.7    0.00       0    91.2
 204   22:50   70.1    30    3.1    54      3.9   926.7    0.00       0    91.0
 204   23:00   70.1    30    2.2    49      4.1   926.7    0.00       0    90.7
 204   23:10   70.8    28    0.6    12      1.8   926.7    0.00       0    90.5
 204   23:20   70.8    27    2.4    62      4.9   926.7    0.00       0    90.2
 204   23:30   70.5    26    3.8    68      5.7   926.6    0.00       0    89.9
 204   23:40   71.3    21    4.0   108      5.6   926.6    0.00       0    89.6
 204   23:50   72.2    16    5.3   123      7.8   926.6    0.00       0    89.0
 205    0:00   72.4    14    4.5   108      6.5   926.6    0.00       0    88.5
 205    0:10   72.5    15    3.7    95      5.9   926.6    0.00       0    88.5
 205    0:20   71.6    22    4.3    79      6.1   926.5    0.00       0    88.4
 205    0:30   72.1    14    3.5   148      5.1   926.5    0.00       0    88.2
 205    0:40   72.1    14    1.8   136      3.4   926.3    0.00       0    88.0
 205    0:50   71.7    14    2.7    98      4.2   926.3    0.00       0    87.8
 205    1:00   72.2    14    2.9   105      5.6   926.3    0.00       0    87.5
 205    1:10   72.4    16    2.0    86      4.1   926.3    0.00       0    87.3
 205    1:20   72.4    19    2.6    80      5.4   926.3    0.00       0    87.0
 205    1:30   72.7    16    1.9   106      3.4   926.2    0.00       0    86.8
 205    1:40   71.5    19    1.3   153      2.6   926.2    0.00       0    86.6
 205    1:50   71.7    14    1.7   238      2.6   926.1    0.00       0    86.5
 205    2:00   71.2    18    1.4   215      2.6   926.0    0.00       0    86.6
 205    2:10   69.7    20    3.4   130      4.7   925.9    0.00       0    86.2
 205    2:20   69.5    17    5.7   139      7.7   925.9    0.00       0    85.6
 205    2:30   70.0    14    5.9   150      8.1   925.9    0.00       0    85.3
 205    2:40   69.4    15    6.6   140      9.9   925.8    0.00       0    85.1
 205    2:50   68.8    14    7.9   132     11.3   925.7    0.00       0    84.6
 205    3:00   69.7    12    9.7   132     12.7   925.7    0.00       0    83.9
 205    3:10   69.8    12    7.4   137     11.5   925.7    0.00       0    83.7
 205    3:20   69.1    13    5.0   115      9.9   925.7    0.00       0    83.7
 205    3:30   68.8    12    3.8   101      6.3   925.7    0.00       0    83.8
 205    3:40   68.9    12    3.7   101      6.0   925.7    0.00       0    83.7
 205    3:50   68.3    15    4.5    82      6.0   925.7    0.00       0    83.5
 205    4:00   68.6    14    4.1    87      6.9   925.7    0.00       0    83.4
 205    4:10   69.1    12    4.2   140      7.5   925.8    0.00       0    83.2
 205    4:20   68.5    12    4.5   132      7.7   925.7    0.00       0    82.9
 205    4:30   68.4    13    6.3   135      8.7   925.7    0.00       0    82.5
 205    4:40   68.5    12    7.0   115     11.1   925.7    0.00       0    82.2

Return to Highlands Peak graphs page.


Western Regional Climate Center,wrcc@dri.edu